Time;durP1;ratioP1;P1;durP2;ratioP2;P2;SDS_P1;SDS_P2;PMS_P1;PMS_P2;Temp;Humidity;BMP_temperature;BMP_pressure;BME280_temperature;BME280_humidity;BME280_pressure;Samples;Min_cycle;Max_cycle;Signal;HPM_P1;HPM_P2
2023/11/20 00:02:20;;;;;;;14.60;5.25;;;;;;;9.22;100.00;100366.63;4900712;29;20047;-79
2023/11/20 00:04:46;;;;;;;17.95;5.43;;;;;;;9.22;100.00;100371.97;4909117;29;20046;-79
2023/11/20 00:07:12;;;;;;;17.20;5.13;;;;;;;9.21;100.00;100365.00;4892522;29;20039;-78
2023/11/20 00:09:39;;;;;;;18.52;5.43;;;;;;;9.22;100.00;100366.63;4905398;29;20044;-79
2023/11/20 00:12:05;;;;;;;15.50;4.93;;;;;;;9.20;100.00;100358.06;4894784;29;20036;-78
2023/11/20 00:14:31;;;;;;;15.38;4.78;;;;;;;9.21;100.00;100356.97;4936072;29;20080;-79
2023/11/20 00:16:58;;;;;;;11.55;4.15;;;;;;;9.21;100.00;100359.66;4908670;29;20043;-78
2023/11/20 00:19:24;;;;;;;10.60;4.28;;;;;;;9.20;100.00;100363.41;4883914;29;20056;-85
2023/11/20 00:21:50;;;;;;;;;;;;;;;9.19;100.00;100362.59;4929457;29;20036;-78
2023/11/20 00:24:15;;;;;;;11.63;3.75;;;;;;;9.18;100.00;100352.97;4919311;29;19918;-84
2023/11/20 00:26:42;;;;;;;12.85;3.97;;;;;;;9.17;100.00;100350.59;4911323;29;20043;-79
2023/11/20 00:29:09;;;;;;;12.48;4.72;;;;;;;9.15;100.00;100353.53;4914566;29;20059;-80
2023/11/20 00:31:35;;;;;;;13.13;4.28;;;;;;;9.18;100.00;100360.19;4904111;29;20107;-82
2023/11/20 00:34:01;;;;;;;9.63;3.72;;;;;;;9.17;100.00;100348.72;4906012;29;20059;-83
2023/11/20 00:36:28;;;;;;;13.45;4.22;;;;;;;9.16;100.00;100344.44;4920598;29;20043;-82
2023/11/20 00:38:54;;;;;;;;;;;;;;;9.16;100.00;100347.13;4896343;29;20035;-81
2023/11/20 00:41:19;;;;;;;11.57;4.50;;;;;;;9.16;100.00;100351.66;4898813;29;19939;-84
2023/11/20 00:43:45;;;;;;;13.80;4.32;;;;;;;9.16;100.00;100347.13;4939825;29;20130;-81
2023/11/20 00:46:17;;;;;;;19.23;4.47;;;;;;;9.15;100.00;100340.19;4901609;29;20048;-81
2023/11/20 00:48:44;;;;;;;12.75;3.60;;;;;;;9.15;100.00;100345.53;4895216;29;20636;-84
2023/11/20 00:51:09;;;;;;;10.02;4.03;;;;;;;9.14;100.00;100340.41;4911993;29;20127;-84
2023/11/20 00:53:39;;;;;;;6.95;3.35;;;;;;;9.10;100.00;100331.38;4919467;29;20805;-83
2023/11/20 00:56:04;;;;;;;10.35;3.60;;;;;;;9.13;100.00;100346.84;4927171;29;20040;-87
2023/11/20 00:58:30;;;;;;;11.07;4.43;;;;;;;9.12;100.00;100342.56;4933502;29;20063;-84
2023/11/20 01:00:57;;;;;;;7.47;3.08;;;;;;;9.13;100.00;100349.50;4906133;29;20043;-87
2023/11/20 01:03:25;;;;;;;9.82;3.13;;;;;;;9.12;100.00;100354.06;4904127;29;20044;-85
2023/11/20 01:05:52;;;;;;;9.15;3.45;;;;;;;9.10;100.00;100348.19;4918755;29;20036;-86
2023/11/20 01:08:18;;;;;;;11.40;4.10;;;;;;;9.06;100.00;100339.09;4918168;29;20030;-87
2023/11/20 01:10:45;;;;;;;16.60;3.92;;;;;;;9.06;100.00;100351.66;4938606;29;20036;-81
2023/11/20 01:13:11;;;;;;;9.63;4.07;;;;;;;9.06;100.00;100349.00;4915339;29;20046;-80
2023/11/20 01:15:37;;;;;;;9.30;3.97;;;;;;;9.06;100.00;100349.00;4898677;29;20036;-82
2023/11/20 01:18:03;;;;;;;10.60;3.67;;;;;;;9.08;100.00;100344.16;4914796;29;20137;-80
2023/11/20 01:20:29;;;;;;;8.63;3.38;;;;;;;9.07;100.00;100347.91;4901534;29;20121;-83
2023/11/20 01:22:55;;;;;;;9.05;3.88;;;;;;;9.07;100.00;100351.38;4896463;29;20066;-81
2023/11/20 01:25:21;;;;;;;7.65;3.50;;;;;;;9.05;100.00;100340.16;4916421;29;20075;-82
2023/11/20 01:27:48;;;;;;;6.88;3.40;;;;;;;9.07;100.00;100342.56;4909305;29;20042;-78
2023/11/20 01:30:15;;;;;;;7.60;3.00;;;;;;;9.07;100.00;100348.72;4908707;29;20027;-85
2023/11/20 01:32:40;;;;;;;;;;;;;;;9.04;100.00;100343.91;4926468;29;20040;-84
2023/11/20 01:35:08;;;;;;;8.35;3.45;;;;;;;9.03;100.00;100343.13;4905156;29;19940;-78
2023/11/20 01:37:34;;;;;;;4.38;2.80;;;;;;;9.05;100.00;100347.38;4907389;29;20051;-82
2023/11/20 01:39:59;;;;;;;6.93;3.40;;;;;;;9.01;100.00;100339.94;4901593;29;20039;-85
2023/11/20 01:42:25;;;;;;;7.63;3.33;;;;;;;9.01;100.00;100336.47;4918753;29;20144;-85
2023/11/20 01:44:51;;;;;;;7.50;3.60;;;;;;;8.99;100.00;100344.72;4909313;29;20035;-84
2023/11/20 01:47:17;;;;;;;7.18;3.65;;;;;;;9.02;100.00;100340.72;4919045;29;20084;-79
2023/11/20 01:49:43;;;;;;;6.80;3.58;;;;;;;9.02;100.00;100346.06;4897880;29;20936;-80
2023/11/20 01:52:09;;;;;;;6.85;3.78;;;;;;;9.01;100.00;100347.94;4901095;29;20509;-79
2023/11/20 01:54:36;;;;;;;9.98;4.18;;;;;;;8.99;100.00;100342.03;4901332;29;20132;-82
2023/11/20 01:57:03;;;;;;;6.18;3.40;;;;;;;9.01;100.00;100344.47;4904280;29;20180;-85
2023/11/20 01:59:32;;;;;;;9.27;3.70;;;;;;;9.01;100.00;100347.94;4925681;29;20032;-84
2023/11/20 02:01:59;;;;;;;6.57;3.10;;;;;;;9.01;100.00;100345.28;4920137;29;20032;-84
2023/11/20 02:04:28;;;;;;;7.75;3.72;;;;;;;9.00;100.00;100348.97;4925552;29;20083;-85
2023/11/20 02:06:54;;;;;;;7.35;3.67;;;;;;;9.00;100.00;100346.31;4918721;29;20032;-79
2023/11/20 02:09:19;;;;;;;9.68;4.03;;;;;;;9.02;100.00;100340.72;4919403;29;20122;-81
2023/11/20 02:11:46;;;;;;;8.25;3.90;;;;;;;9.01;100.00;100350.59;4899446;29;20035;-80
2023/11/20 02:14:15;;;;;;;6.55;3.70;;;;;;;9.01;100.00;100350.59;4921033;29;20051;-84
2023/11/20 02:16:40;;;;;;;7.00;3.92;;;;;;;9.03;100.00;100355.69;4906153;29;20044;-79
2023/11/20 02:19:11;;;;;;;8.18;4.00;;;;;;;9.01;100.00;100355.94;4923552;29;20031;-80
2023/11/20 02:21:37;;;;;;;6.47;3.33;;;;;;;9.01;100.00;100355.94;4923254;29;20036;-87
2023/11/20 02:24:04;;;;;;;7.25;3.65;;;;;;;9.00;100.00;100348.97;4950145;29;20049;-88
2023/11/20 02:26:51;;;;;;;9.27;4.07;;;;;;;9.00;100.00;100353.53;4948341;29;20090;-87
2023/11/20 02:29:44;;;;;;;8.48;3.50;;;;;;;8.99;100.00;100352.72;4916116;29;20047;-79
2023/11/20 02:32:12;;;;;;;7.70;3.35;;;;;;;9.00;100.00;100358.88;4881490;29;20051;-81
2023/11/20 02:34:39;;;;;;;6.43;3.75;;;;;;;9.02;100.00;100362.88;4901872;29;20773;-82
2023/11/20 02:37:04;;;;;;;7.88;3.65;;;;;;;8.99;100.00;100358.06;4923913;29;20390;-80
2023/11/20 02:39:30;;;;;;;4.55;2.75;;;;;;;8.95;100.00;100349.00;4931450;29;20137;-82
2023/11/20 02:41:57;;;;;;;9.07;3.80;;;;;;;8.98;100.00;100351.13;4924588;29;20816;-81
2023/11/20 02:44:22;;;;;;;9.88;4.70;;;;;;;8.97;100.00;100357.53;4888281;29;20055;-80
2023/11/20 02:46:48;;;;;;;8.75;4.55;;;;;;;8.97;100.00;100354.88;4913667;29;20425;-79
2023/11/20 02:49:14;;;;;;;8.52;4.70;;;;;;;8.96;100.00;100352.47;4899636;29;20027;-82
2023/11/20 02:51:43;;;;;;;8.25;4.15;;;;;;;8.97;100.00;100349.53;4916841;29;20095;-80
2023/11/20 02:54:08;;;;;;;9.38;4.15;;;;;;;8.99;100.00;100358.06;4907490;29;20375;-82
2023/11/20 02:56:35;;;;;;;6.68;4.80;;;;;;;8.99;100.00;100355.41;4897023;29;20051;-80
2023/11/20 02:59:04;;;;;;;10.45;4.90;;;;;;;8.97;100.00;100352.19;4898111;29;20047;-79
2023/11/20 03:01:31;;;;;;;10.10;4.55;;;;;;;8.99;100.00;100355.41;4908309;29;20155;-79
2023/11/20 03:03:57;;;;;;;10.60;4.90;;;;;;;8.97;100.00;100346.88;4899666;29;20047;-78
2023/11/20 03:06:22;;;;;;;10.02;5.55;;;;;;;8.99;100.00;100347.38;4893136;29;20155;-80
2023/11/20 03:08:50;;;;;;;9.25;5.63;;;;;;;8.99;100.00;100342.03;4872000;29;20036;-77
2023/11/20 03:11:17;;;;;;;10.05;5.25;;;;;;;9.01;100.00;100347.13;4898448;29;20046;-80
2023/11/20 03:13:43;;;;;;;7.15;4.40;;;;;;;9.01;100.00;100350.59;4891698;29;20470;-78
2023/11/20 03:16:09;;;;;;;8.52;4.53;;;;;;;9.02;100.00;100348.75;4904917;29;20031;-78
2023/11/20 03:18:37;;;;;;;11.98;6.28;;;;;;;9.03;100.00;100348.47;4896866;29;20064;-78
2023/11/20 03:21:03;;;;;;;9.27;5.00;;;;;;;9.05;100.00;100350.06;4884445;29;20050;-79
2023/11/20 03:23:30;;;;;;;10.40;5.45;;;;;;;9.06;100.00;100357.81;4929949;29;20122;-77
2023/11/20 03:25:56;;;;;;;12.23;5.32;;;;;;;9.04;100.00;100349.25;4875710;29;20039;-79
2023/11/20 03:28:21;;;;;;;11.57;6.35;;;;;;;9.05;100.00;100361.53;4896324;29;20055;-78
2023/11/20 03:30:49;;;;;;;9.40;5.13;;;;;;;9.07;100.00;100353.25;4890457;29;20043;-78
2023/11/20 03:33:16;;;;;;;10.43;5.40;;;;;;;9.07;100.00;100358.59;4923971;29;20047;-80
2023/11/20 03:35:42;;;;;;;9.80;5.72;;;;;;;9.06;100.00;100352.47;4908149;29;20035;-86
2023/11/20 03:38:08;;;;;;;;;;;;;;;9.06;100.00;100357.81;4909115;29;20048;-78
2023/11/20 03:40:33;;;;;;;5.95;3.33;;;;;;;9.04;100.00;100354.59;4930753;29;19924;-78
2023/11/20 03:43:00;;;;;;;9.00;5.80;;;;;;;9.06;100.00;100362.34;4898112;29;20490;-80
2023/11/20 03:45:25;;;;;;;8.02;4.53;;;;;;;9.03;100.00;100359.16;4902309;29;20036;-78
2023/11/20 03:47:51;;;;;;;8.95;4.90;;;;;;;9.02;100.00;100346.88;4918145;29;20183;-81
2023/11/20 03:50:16;;;;;;;8.85;4.55;;;;;;;9.01;100.00;100353.28;4921402;29;20039;-83
2023/11/20 03:52:42;;;;;;;9.32;5.32;;;;;;;9.03;100.00;100356.47;4918065;29;20096;-85
2023/11/20 03:55:09;;;;;;;10.45;6.05;;;;;;;9.01;100.00;100350.59;4931004;29;20027;-81
2023/11/20 03:57:36;;;;;;;11.55;6.05;;;;;;;9.01;100.00;100350.59;4929656;29;20063;-88
2023/11/20 04:00:04;;;;;;;13.27;6.82;;;;;;;9.00;100.00;100348.19;4952100;29;20051;-88
2023/11/20 04:02:30;;;;;;;12.27;6.63;;;;;;;8.97;100.00;100346.88;4929886;29;20075;-86
2023/11/20 04:04:57;;;;;;;10.57;5.50;;;;;;;8.97;100.00;100349.53;4901078;29;20726;-79
2023/11/20 04:07:23;;;;;;;12.00;5.72;;;;;;;8.95;100.00;100357.03;4935041;29;20043;-81
2023/11/20 04:09:49;;;;;;;9.82;5.80;;;;;;;8.95;100.00;100354.34;4914203;29;20072;-82
2023/11/20 04:12:15;;;;;;;10.07;5.13;;;;;;;8.95;100.00;100356.22;4910499;29;20035;-80
2023/11/20 04:14:40;;;;;;;8.02;5.07;;;;;;;8.95;100.00;100351.69;4908468;29;20028;-82
2023/11/20 04:17:06;;;;;;;7.10;4.32;;;;;;;8.96;100.00;100355.16;4920521;29;20067;-78
2023/11/20 04:19:31;;;;;;;8.85;5.43;;;;;;;8.97;100.00;100354.06;4900459;29;20527;-80
2023/11/20 04:21:57;;;;;;;9.43;5.50;;;;;;;8.93;100.00;100351.13;4901201;29;20036;-80
2023/11/20 04:24:22;;;;;;;8.23;4.50;;;;;;;8.94;100.00;100352.75;4912259;29;20035;-78
2023/11/20 04:26:48;;;;;;;8.75;5.28;;;;;;;8.96;100.00;100357.81;4903566;29;20122;-78
2023/11/20 04:29:15;;;;;;;10.95;4.90;;;;;;;8.96;100.00;100358.63;4914584;29;20039;-81
2023/11/20 04:31:40;;;;;;;;;;;;;;;8.95;100.00;100356.22;4929219;29;20048;-79
2023/11/20 04:34:06;;;;;;;6.70;4.28;;;;;;;8.93;100.00;100369.81;4917061;29;19918;-80
2023/11/20 04:36:32;;;;;;;10.50;4.90;;;;;;;8.92;100.00;100362.88;4896439;29;20865;-79
2023/11/20 04:38:57;;;;;;;10.98;5.78;;;;;;;8.91;100.00;100358.63;4904863;29;20043;-79
2023/11/20 04:41:23;;;;;;;11.93;5.50;;;;;;;8.91;100.00;100371.97;4898444;29;20032;-78
2023/11/20 04:43:48;;;;;;;10.50;5.22;;;;;;;8.91;100.00;100365.81;4926607;29;20044;-81
2023/11/20 04:46:14;;;;;;;8.63;5.68;;;;;;;8.91;100.00;100373.84;4899177;29;20032;-79
2023/11/20 04:48:40;;;;;;;13.52;5.57;;;;;;;8.91;100.00;100374.63;4912508;29;20036;-80
2023/11/20 04:51:06;;;;;;;10.70;5.70;;;;;;;8.92;100.00;100364.75;4915580;29;20040;-80
2023/11/20 04:53:32;;;;;;;9.68;5.30;;;;;;;8.91;100.00;100368.50;4899211;29;20054;-81
2023/11/20 04:55:58;;;;;;;11.60;5.82;;;;;;;8.92;100.00;100368.22;4918032;29;20043;-79
2023/11/20 04:58:24;;;;;;;9.52;5.68;;;;;;;8.89;100.00;100363.44;4899210;29;20043;-79
2023/11/20 05:00:51;;;;;;;9.93;5.43;;;;;;;8.91;100.00;100366.63;4903778;29;20035;-81
2023/11/20 05:03:17;;;;;;;14.85;5.90;;;;;;;8.91;100.00;100358.63;4912021;29;20110;-81
2023/11/20 05:05:43;;;;;;;10.38;5.70;;;;;;;8.89;100.00;100368.78;4934136;29;20038;-81
2023/11/20 05:08:10;;;;;;;21.65;6.80;;;;;;;8.89;100.00;100375.97;4917356;29;20044;-81
2023/11/20 05:10:36;;;;;;;11.75;5.93;;;;;;;8.91;100.00;100381.84;4904573;29;20039;-80
2023/11/20 05:13:02;;;;;;;;;;;;;;;8.90;100.00;100378.38;4905419;29;20658;-81
2023/11/20 05:15:28;;;;;;;10.50;5.80;;;;;;;8.88;100.00;100383.19;4916538;29;19919;-82
2023/11/20 05:17:53;;;;;;;13.45;7.25;;;;;;;8.88;100.00;100388.53;4898494;29;20075;-79
2023/11/20 05:20:19;;;;;;;12.75;6.25;;;;;;;8.89;100.00;100390.13;4907212;29;20035;-80
2023/11/20 05:22:45;;;;;;;20.17;7.25;;;;;;;8.90;100.00;100397.06;4916820;29;20050;-79
2023/11/20 05:25:11;;;;;;;15.38;7.10;;;;;;;8.88;100.00;100393.88;4887785;29;20509;-80
2023/11/20 05:27:37;;;;;;;11.45;5.68;;;;;;;8.89;100.00;100390.13;4931438;29;20156;-79
2023/11/20 05:30:05;;;;;;;14.93;6.93;;;;;;;8.90;100.00;100399.75;4905366;29;20036;-79
2023/11/20 05:32:31;;;;;;;14.38;6.68;;;;;;;8.90;100.00;100405.09;4890226;29;20044;-78
2023/11/20 05:34:56;;;;;;;11.15;6.13;;;;;;;8.88;100.00;100399.22;4912036;29;20101;-79
2023/11/20 05:37:23;;;;;;;15.10;7.15;;;;;;;8.90;100.00;100402.41;4887437;29;20096;-80
2023/11/20 05:39:48;;;;;;;;;;;;;;;8.90;100.00;100398.94;4905229;29;20553;-80
2023/11/20 05:42:13;;;;;;;13.05;6.18;;;;;;;8.89;100.00;100394.69;4903887;29;19970;-79
2023/11/20 05:44:39;;;;;;;11.50;5.45;;;;;;;8.90;100.00;100393.59;4897924;29;20471;-80
2023/11/20 05:47:06;;;;;;;12.85;5.82;;;;;;;8.89;100.00;100394.69;4888708;29;20549;-79
2023/11/20 05:49:31;;;;;;;17.38;7.13;;;;;;;8.88;100.00;100387.75;4920603;29;20513;-81
2023/11/20 05:51:57;;;;;;;18.90;6.90;;;;;;;8.87;100.00;100392.25;4896797;29;20054;-79
2023/11/20 05:54:23;;;;;;;13.77;6.95;;;;;;;8.88;100.00;100396.53;4902944;29;20032;-79
2023/11/20 05:56:48;;;;;;;12.48;5.70;;;;;;;8.88;100.00;100393.88;4891664;29;20410;-79
2023/11/20 05:59:14;;;;;;;14.15;6.28;;;;;;;8.88;100.00;100399.22;4904445;29;20031;-80
2023/11/20 06:01:41;;;;;;;12.27;6.25;;;;;;;8.89;100.00;100400.81;4925757;29;20039;-81
2023/11/20 06:04:08;;;;;;;17.38;7.32;;;;;;;8.86;100.00;100396.00;4909698;29;20044;-80
2023/11/20 06:06:35;;;;;;;20.20;7.13;;;;;;;8.85;100.00;100399.72;4934758;29;20099;-80
2023/11/20 06:09:04;;;;;;;15.60;7.05;;;;;;;8.85;100.00;100399.72;4932922;29;20091;-81
2023/11/20 06:11:30;;;;;;;15.60;6.72;;;;;;;8.85;100.00;100404.28;4897001;29;20039;-78
2023/11/20 06:13:59;;;;;;;13.02;5.35;;;;;;;8.84;100.00;100403.47;4901578;29;20118;-79
2023/11/20 06:16:26;;;;;;;17.02;7.13;;;;;;;8.84;100.00;100402.69;4912063;29;20025;-82
2023/11/20 06:18:51;;;;;;;11.77;6.25;;;;;;;8.83;100.00;100403.75;4895803;29;20096;-80
2023/11/20 06:21:18;;;;;;;17.52;6.10;;;;;;;8.79;100.00;100410.69;4892850;29;20054;-79
2023/11/20 06:23:45;;;;;;;10.60;5.30;;;;;;;8.77;100.00;100408.28;4929265;29;20024;-81
2023/11/20 06:26:13;;;;;;;12.80;5.88;;;;;;;8.76;100.00;100412.03;4911755;29;20030;-81
2023/11/20 06:28:43;;;;;;;11.02;4.75;;;;;;;8.72;100.00;100405.59;4933111;29;20046;-79
2023/11/20 06:31:12;;;;;;;13.35;6.63;;;;;;;8.71;100.00;100410.13;4893836;29;20076;-81
2023/11/20 06:33:38;;;;;;;12.90;6.57;;;;;;;8.69;100.00;100417.63;4902750;29;20042;-81
2023/11/20 06:36:06;;;;;;;11.15;5.88;;;;;;;8.68;100.00;100412.53;4912275;29;20031;-82
2023/11/20 06:38:34;;;;;;;12.77;6.05;;;;;;;8.67;100.00;100419.75;4875222;29;20634;-78
2023/11/20 06:41:04;;;;;;;11.95;5.82;;;;;;;8.67;100.00;100418.94;4914716;29;20066;-80
2023/11/20 06:43:30;;;;;;;11.13;5.50;;;;;;;8.67;100.00;100418.94;4880924;29;20039;-78
2023/11/20 06:45:56;;;;;;;13.27;5.60;;;;;;;8.68;100.00;100425.91;4896834;29;20032;-79
2023/11/20 06:48:21;;;;;;;;;;;;;;;8.67;100.00;100432.28;4909108;29;20048;-79
2023/11/20 06:50:47;;;;;;;10.60;4.65;;;;;;;8.66;100.00;100441.34;4901029;29;19922;-80
2023/11/20 06:53:13;;;;;;;13.20;6.10;;;;;;;8.66;100.00;100446.69;4909849;29;20520;-80
2023/11/20 06:55:39;;;;;;;12.85;5.63;;;;;;;8.64;100.00;100446.97;4901544;29;20227;-80
2023/11/20 06:58:04;;;;;;;13.95;6.00;;;;;;;8.64;100.00;100446.16;4884423;29;20043;-80
2023/11/20 07:00:31;;;;;;;10.52;4.70;;;;;;;8.65;100.00;100459.25;4913441;29;20325;-80
2023/11/20 07:02:56;;;;;;;;;;;;;;;8.66;100.00;100465.38;4878001;29;20036;-79
2023/11/20 07:05:22;;;;;;;15.00;5.72;;;;;;;8.64;100.00;100459.50;4894477;29;19926;-79
2023/11/20 07:07:52;;;;;;;9.27;4.38;;;;;;;8.67;100.00;100458.97;4925959;29;20043;-81
2023/11/20 07:10:23;;;;;;;11.43;5.43;;;;;;;8.65;100.00;100461.09;4899557;29;20051;-79
2023/11/20 07:12:56;;;;;;;13.52;5.13;;;;;;;8.67;100.00;100462.47;4925918;29;20513;-80
2023/11/20 07:15:23;;;;;;;10.68;5.10;;;;;;;8.66;100.00;100460.03;4910987;29;20031;-78
2023/11/20 07:17:50;;;;;;;12.68;5.28;;;;;;;8.67;100.00;100472.31;4877942;29;20043;-78
2023/11/20 07:20:17;;;;;;;12.18;5.57;;;;;;;8.69;100.00;100475.53;4905206;29;20117;-79
2023/11/20 07:22:43;;;;;;;14.40;5.22;;;;;;;8.68;100.00;100468.59;4917826;29;20044;-80
2023/11/20 07:25:09;;;;;;;9.18;4.53;;;;;;;8.71;100.00;100473.41;4921986;29;20055;-79
2023/11/20 07:27:35;;;;;;;12.00;5.15;;;;;;;8.74;100.00;100483.56;4911474;29;20066;-78
2023/11/20 07:30:03;;;;;;;8.90;4.50;;;;;;;8.74;100.00;100478.25;4913470;29;20043;-79
2023/11/20 07:32:29;;;;;;;10.52;5.22;;;;;;;8.77;100.00;100476.91;4906874;29;20039;-80
2023/11/20 07:34:54;;;;;;;;;;;;;;;8.79;100.00;100478.22;4895815;29;20043;-80
2023/11/20 07:37:21;;;;;;;9.25;4.00;;;;;;;8.79;100.00;100482.78;4881433;29;19923;-78
2023/11/20 07:39:48;;;;;;;11.15;4.57;;;;;;;8.80;100.00;100487.84;4912848;29;20048;-79
2023/11/20 07:42:14;;;;;;;8.98;5.07;;;;;;;8.81;100.00;100488.66;4902129;29;20112;-81
2023/11/20 07:44:41;;;;;;;10.52;5.25;;;;;;;8.84;100.00;100488.94;4898671;29;20050;-79
2023/11/20 07:47:06;;;;;;;;;;;;;;;8.85;100.00;100489.72;4916565;29;20416;-79
2023/11/20 07:49:33;;;;;;;8.38;5.15;;;;;;;8.85;100.00;100485.19;4915630;29;19919;-78
2023/11/20 07:51:59;;;;;;;9.68;5.13;;;;;;;8.86;100.00;100485.97;4910414;29;20030;-79
2023/11/20 07:54:26;;;;;;;12.75;5.32;;;;;;;8.88;100.00;100484.69;4905910;29;20048;-78
2023/11/20 07:56:52;;;;;;;8.55;4.90;;;;;;;8.90;100.00;100497.75;4904625;29;20039;-81
2023/11/20 07:59:17;;;;;;;;;;;;;;;8.91;100.00;100489.47;4894447;29;20056;-78
2023/11/20 08:01:43;;;;;;;13.27;5.20;;;;;;;8.92;100.00;100499.09;4915518;29;20364;-80
2023/11/20 08:04:11;;;;;;;10.27;5.32;;;;;;;8.97;100.00;100504.44;4905969;29;20067;-79
2023/11/20 08:06:37;;;;;;;11.60;5.55;;;;;;;8.99;100.00;100496.16;4904934;29;20054;-77
2023/11/20 08:09:07;;;;;;;11.00;6.03;;;;;;;9.00;100.00;100490.53;4899641;29;20040;-78
2023/11/20 08:11:33;;;;;;;12.52;6.97;;;;;;;9.01;100.00;100499.38;4910802;29;20039;-79
2023/11/20 08:13:59;;;;;;;13.63;6.57;;;;;;;9.06;100.00;100503.91;4918119;29;20038;-78
2023/11/20 08:16:24;;;;;;;14.23;7.43;;;;;;;9.10;100.00;100502.34;4912799;29;20043;-80
2023/11/20 08:18:52;;;;;;;15.63;7.05;;;;;;;9.13;100.00;100497.25;4887686;29;20040;-78
2023/11/20 08:21:18;;;;;;;17.50;8.52;;;;;;;9.17;100.00;100508.22;4909966;29;20050;-80
2023/11/20 08:23:44;;;;;;;;;;;;;;;9.17;100.00;100513.56;4880020;29;20126;-80
2023/11/20 08:26:09;;;;;;;13.25;6.55;;;;;;;9.17;100.00;100505.53;4893505;29;20328;-79
2023/11/20 08:28:35;;;;;;;11.52;6.13;;;;;;;9.18;100.00;100505.28;4915014;29;20039;-79
2023/11/20 08:31:00;;;;;;;13.23;6.43;;;;;;;9.19;100.00;100506.88;4909212;29;20043;-78
2023/11/20 08:33:26;;;;;;;13.88;6.32;;;;;;;9.22;100.00;100505.56;4912208;29;20042;-80
2023/11/20 08:35:52;;;;;;;13.93;6.93;;;;;;;9.22;100.00;100510.91;4910404;29;20061;-79
2023/11/20 08:38:17;;;;;;;11.07;6.18;;;;;;;9.22;100.00;100506.34;4899309;29;20047;-80
2023/11/20 08:40:43;;;;;;;13.18;6.78;;;;;;;9.23;100.00;100507.97;4909168;29;20409;-82
2023/11/20 08:43:09;;;;;;;18.05;7.88;;;;;;;9.25;100.00;100508.47;4898297;29;20039;-79
2023/11/20 08:45:35;;;;;;;14.63;7.13;;;;;;;9.26;100.00;100514.63;4886754;29;20126;-81
2023/11/20 08:48:05;;;;;;;13.23;6.53;;;;;;;9.30;100.00;100513.84;4899765;29;20035;-81
2023/11/20 08:50:31;;;;;;;16.75;7.53;;;;;;;9.33;100.00;100509.81;4939923;29;20052;-79
2023/11/20 08:52:58;;;;;;;16.88;6.63;;;;;;;9.35;100.00;100510.38;4904784;29;20043;-81
2023/11/20 08:55:24;;;;;;;17.48;6.72;;;;;;;9.34;100.00;100508.75;4885025;29;20051;-78
2023/11/20 08:57:49;;;;;;;14.48;7.55;;;;;;;9.37;100.00;100504.75;4922961;29;20059;-81
2023/11/20 09:00:15;;;;;;;13.77;7.28;;;;;;;9.41;100.00;100503.13;4900450;29;20043;-82
2023/11/20 09:02:42;;;;;;;11.75;6.68;;;;;;;9.44;100.00;100500.75;4917467;29;20119;-83
2023/11/20 09:05:10;;;;;;;15.65;8.00;;;;;;;9.47;100.00;100499.41;4920191;29;20023;-84
2023/11/20 09:07:36;;;;;;;16.02;7.45;;;;;;;9.51;100.00;100503.16;4893351;29;20032;-80
2023/11/20 09:10:04;;;;;;;18.10;8.52;;;;;;;9.54;100.00;100514.09;4922605;29;20188;-81
2023/11/20 09:12:30;;;;;;;17.15;8.27;;;;;;;9.57;100.00;100513.56;4902862;29;20031;-82
2023/11/20 09:14:56;;;;;;;18.65;8.43;;;;;;;9.58;100.00;100512.50;4929779;29;20036;-82
2023/11/20 09:17:22;;;;;;;15.68;7.80;;;;;;;9.60;100.00;100512.22;4914318;29;20047;-84
2023/11/20 09:19:47;;;;;;;16.10;7.22;;;;;;;9.62;100.00;100519.97;4925157;29;20040;-84
2023/11/20 09:22:14;;;;;;;12.65;6.78;;;;;;;9.66;100.00;100515.72;4934906;29;20071;-79
2023/11/20 09:24:40;;;;;;;17.02;7.53;;;;;;;9.71;100.00;100527.19;4921410;29;20059;-85
2023/11/20 09:27:10;;;;;;;21.10;9.07;;;;;;;9.71;100.00;100523.72;4939763;29;20031;-81
2023/11/20 09:29:39;;;;;;;18.23;7.78;;;;;;;9.71;100.00;100518.38;4888870;29;20107;-82
2023/11/20 09:32:05;;;;;;;17.23;7.72;;;;;;;9.73;100.00;100525.06;4925010;29;20035;-81
2023/11/20 09:34:31;;;;;;;;;;;;;;;9.76;100.00;100521.84;4899358;29;20039;-82
2023/11/20 09:36:56;;;;;;;16.10;8.02;;;;;;;9.77;100.00;100522.66;4910921;29;19970;-83
2023/11/20 09:39:24;;;;;;;13.80;7.25;;;;;;;9.79;100.00;100515.16;4910509;29;20046;-82
2023/11/20 09:41:50;;;;;;;17.33;8.95;;;;;;;9.85;100.00;100508.72;4925443;29;20038;-83
2023/11/20 09:44:22;;;;;;;14.45;8.00;;;;;;;9.88;100.00;100523.44;4910101;29;20378;-81
2023/11/20 09:46:49;;;;;;;16.45;7.57;;;;;;;9.90;100.00;100514.09;4918059;29;20036;-81
2023/11/20 09:49:21;;;;;;;;;;;;;;;9.94;100.00;100517.00;4914542;29;20070;-82
2023/11/20 09:51:48;;;;;;;14.27;7.68;;;;;;;9.97;100.00;100517.28;4906723;29;19922;-78
2023/11/20 09:54:15;;;;;;;18.55;9.07;;;;;;;9.97;100.00;100516.47;4884107;29;20047;-78
2023/11/20 09:56:41;;;;;;;16.73;8.20;;;;;;;9.91;100.00;100518.34;4936475;29;20031;-78
2023/11/20 09:59:08;;;;;;;17.30;8.75;;;;;;;9.93;100.00;100516.19;4906989;29;20058;-80
2023/11/20 10:01:35;;;;;;;15.95;8.65;;;;;;;9.96;100.00;100518.34;4908463;29;20170;-80
2023/11/20 10:04:02;;;;;;;14.35;8.40;;;;;;;9.96;100.00;100518.34;4899405;29;20048;-78
2023/11/20 10:06:30;;;;;;;16.85;8.27;;;;;;;10.00;100.00;100530.09;4916926;29;20031;-80
2023/11/20 10:08:56;;;;;;;18.67;8.45;;;;;;;10.02;100.00;100517.25;4877846;29;20044;-78
2023/11/20 10:11:24;;;;;;;16.20;7.60;;;;;;;10.01;100.00;100525.53;4921542;29;20126;-80
2023/11/20 10:13:51;;;;;;;15.63;8.10;;;;;;;10.00;100.00;100527.44;4898639;29;20034;-79
2023/11/20 10:16:22;;;;;;;15.25;7.43;;;;;;;9.99;100.00;100520.47;4902025;29;20032;-79
2023/11/20 10:18:49;;;;;;;16.25;7.95;;;;;;;9.97;100.00;100516.47;4893598;29;20150;-81
2023/11/20 10:21:18;;;;;;;16.00;8.45;;;;;;;9.98;100.00;100526.91;4901699;29;20059;-79
2023/11/20 10:23:43;;;;;;;15.63;7.53;;;;;;;10.00;100.00;100527.44;4901252;29;20036;-77
2023/11/20 10:26:11;;;;;;;22.75;8.75;;;;;;;10.02;100.00;100529.81;4906798;29;20036;-79
2023/11/20 10:28:38;;;;;;;16.45;9.27;;;;;;;10.00;100.00;100522.06;4910714;29;20047;-78
2023/11/20 10:31:05;;;;;;;18.00;10.65;;;;;;;9.98;100.00;100518.06;4896369;29;20047;-83
2023/11/20 10:33:30;;;;;;;19.77;9.65;;;;;;;9.97;100.00;100517.28;4894107;29;20040;-80
2023/11/20 10:36:10;;;;;;;22.83;9.93;;;;;;;9.99;100.00;100519.69;4916182;29;20035;-79
2023/11/20 10:38:36;;;;;;;16.52;8.00;;;;;;;10.02;100.00;100519.13;4910820;29;20028;-80
2023/11/20 10:41:03;;;;;;;16.25;8.55;;;;;;;9.99;100.00;100520.47;4898735;29;20055;-78
2023/11/20 10:43:30;;;;;;;14.63;7.72;;;;;;;9.97;100.00;100517.28;4936993;29;20046;-76
2023/11/20 10:45:56;;;;;;;14.93;7.57;;;;;;;9.98;100.00;100505.50;4884240;29;20039;-77
2023/11/20 10:48:22;;;;;;;;;;;;;;;10.03;100.00;100510.84;4903364;29;20086;-79
2023/11/20 10:50:49;;;;;;;11.82;6.30;;;;;;;10.04;100.00;100507.09;4921348;29;20144;-78
2023/11/20 10:53:17;;;;;;;15.50;7.70;;;;;;;10.02;100.00;100511.91;4896721;29;20496;-77
2023/11/20 10:55:50;;;;;;;15.25;7.32;;;;;;;10.02;100.00;100508.41;4921116;29;20036;-80
2023/11/20 10:58:16;;;;;;;11.75;7.43;;;;;;;10.01;100.00;100512.97;4899829;29;20054;-78
2023/11/20 11:00:44;;;;;;;13.18;6.85;;;;;;;10.03;100.00;100515.41;4921944;29;20047;-77
2023/11/20 11:03:11;;;;;;;19.85;8.80;;;;;;;10.01;100.00;100512.97;4897267;29;20038;-78
2023/11/20 11:05:43;;;;;;;17.73;9.82;;;;;;;10.03;100.00;100512.72;4913653;29;20516;-78
2023/11/20 11:08:14;;;;;;;15.88;9.18;;;;;;;10.01;100.00;100507.63;4896321;29;20035;-79
2023/11/20 11:10:41;;;;;;;19.83;9.60;;;;;;;10.00;100.00;100506.03;4891483;29;20493;-79
2023/11/20 11:13:08;;;;;;;16.67;9.02;;;;;;;10.01;100.00;100507.63;4929052;29;20045;-81
2023/11/20 11:15:35;;;;;;;15.40;9.07;;;;;;;10.01;100.00;100504.94;4913841;29;20110;-79
2023/11/20 11:18:04;;;;;;;14.60;8.63;;;;;;;10.04;100.00;100504.41;4912530;29;20102;-81
2023/11/20 11:20:47;;;;;;;16.90;8.60;;;;;;;10.05;100.00;100503.34;4898182;29;20183;-80